sensor_id;sensor_type;location;lat;lon;timestamp;P1;durP1;ratioP1;P2;durP2;ratioP2
28760;SDS011;15917;50.014;8.352;2023-06-22T00:00:52;8.00;;;5.75;;
28760;SDS011;15917;50.014;8.352;2023-06-22T00:03:18;9.15;;;5.60;;
28760;SDS011;15917;50.014;8.352;2023-06-22T00:05:46;7.63;;;5.18;;
28760;SDS011;15917;50.014;8.352;2023-06-22T00:08:13;11.63;;;5.15;;
28760;SDS011;15917;50.014;8.352;2023-06-22T00:10:39;7.85;;;5.55;;
28760;SDS011;15917;50.014;8.352;2023-06-22T00:13:05;6.85;;;5.18;;
28760;SDS011;15917;50.014;8.352;2023-06-22T00:15:32;8.75;;;5.72;;
28760;SDS011;15917;50.014;8.352;2023-06-22T00:17:58;7.65;;;5.72;;
28760;SDS011;15917;50.014;8.352;2023-06-22T00:20:24;7.85;;;5.38;;
28760;SDS011;15917;50.014;8.352;2023-06-22T00:22:53;8.73;;;5.72;;
28760;SDS011;15917;50.014;8.352;2023-06-22T00:25:20;10.75;;;5.30;;
28760;SDS011;15917;50.014;8.352;2023-06-22T00:27:45;9.07;;;6.40;;
28760;SDS011;15917;50.014;8.352;2023-06-22T00:30:11;8.73;;;5.70;;
28760;SDS011;15917;50.014;8.352;2023-06-22T00:32:37;10.00;;;6.65;;
28760;SDS011;15917;50.014;8.352;2023-06-22T00:35:02;10.02;;;6.65;;
28760;SDS011;15917;50.014;8.352;2023-06-22T00:37:28;13.15;;;6.15;;
28760;SDS011;15917;50.014;8.352;2023-06-22T00:39:54;10.70;;;5.63;;
28760;SDS011;15917;50.014;8.352;2023-06-22T00:42:21;10.38;;;5.90;;
28760;SDS011;15917;50.014;8.352;2023-06-22T00:44:46;8.45;;;5.70;;
28760;SDS011;15917;50.014;8.352;2023-06-22T00:47:15;8.18;;;5.93;;
28760;SDS011;15917;50.014;8.352;2023-06-22T00:49:43;10.65;;;6.43;;
28760;SDS011;15917;50.014;8.352;2023-06-22T00:52:09;9.07;;;5.95;;
28760;SDS011;15917;50.014;8.352;2023-06-22T00:54:39;16.35;;;6.20;;
28760;SDS011;15917;50.014;8.352;2023-06-22T00:57:13;13.38;;;6.35;;
28760;SDS011;15917;50.014;8.352;2023-06-22T00:59:42;14.70;;;6.80;;
28760;SDS011;15917;50.014;8.352;2023-06-22T01:02:09;11.80;;;6.72;;
28760;SDS011;15917;50.014;8.352;2023-06-22T01:04:35;9.98;;;6.10;;
28760;SDS011;15917;50.014;8.352;2023-06-22T01:09:51;9.43;;;6.13;;
28760;SDS011;15917;50.014;8.352;2023-06-22T01:12:20;10.70;;;7.40;;
28760;SDS011;15917;50.014;8.352;2023-06-22T01:14:47;11.02;;;7.30;;
28760;SDS011;15917;50.014;8.352;2023-06-22T01:17:23;13.27;;;6.87;;
28760;SDS011;15917;50.014;8.352;2023-06-22T01:19:53;11.75;;;7.03;;
28760;SDS011;15917;50.014;8.352;2023-06-22T01:22:22;10.85;;;7.53;;
28760;SDS011;15917;50.014;8.352;2023-06-22T01:27:52;15.23;;;8.25;;
28760;SDS011;15917;50.014;8.352;2023-06-22T01:30:20;18.55;;;8.30;;
28760;SDS011;15917;50.014;8.352;2023-06-22T01:32:47;18.95;;;8.52;;
28760;SDS011;15917;50.014;8.352;2023-06-22T01:35:13;11.55;;;8.32;;
28760;SDS011;15917;50.014;8.352;2023-06-22T01:37:40;14.73;;;8.90;;
28760;SDS011;15917;50.014;8.352;2023-06-22T01:40:06;14.82;;;8.18;;
28760;SDS011;15917;50.014;8.352;2023-06-22T01:45:00;12.68;;;8.38;;
28760;SDS011;15917;50.014;8.352;2023-06-22T01:47:26;11.88;;;8.18;;
28760;SDS011;15917;50.014;8.352;2023-06-22T01:49:53;12.48;;;7.88;;
28760;SDS011;15917;50.014;8.352;2023-06-22T01:52:19;14.07;;;8.50;;
28760;SDS011;15917;50.014;8.352;2023-06-22T01:54:46;14.20;;;7.63;;
28760;SDS011;15917;50.014;8.352;2023-06-22T01:57:12;11.63;;;7.88;;
28760;SDS011;15917;50.014;8.352;2023-06-22T02:02:24;16.15;;;9.07;;
28760;SDS011;15917;50.014;8.352;2023-06-22T02:05:03;15.65;;;8.27;;
28760;SDS011;15917;50.014;8.352;2023-06-22T02:07:39;12.02;;;8.15;;
28760;SDS011;15917;50.014;8.352;2023-06-22T02:10:11;12.13;;;8.30;;
28760;SDS011;15917;50.014;8.352;2023-06-22T02:12:40;15.82;;;8.25;;
28760;SDS011;15917;50.014;8.352;2023-06-22T02:15:08;14.20;;;8.15;;
28760;SDS011;15917;50.014;8.352;2023-06-22T02:17:37;10.40;;;7.15;;
28760;SDS011;15917;50.014;8.352;2023-06-22T02:20:03;11.63;;;7.90;;
28760;SDS011;15917;50.014;8.352;2023-06-22T02:22:34;12.30;;;7.35;;
28760;SDS011;15917;50.014;8.352;2023-06-22T02:25:01;14.52;;;8.43;;
28760;SDS011;15917;50.014;8.352;2023-06-22T02:27:27;12.27;;;7.82;;
28760;SDS011;15917;50.014;8.352;2023-06-22T02:29:53;14.65;;;8.30;;
28760;SDS011;15917;50.014;8.352;2023-06-22T02:32:18;9.82;;;7.65;;
28760;SDS011;15917;50.014;8.352;2023-06-22T02:34:45;11.27;;;7.57;;
28760;SDS011;15917;50.014;8.352;2023-06-22T02:37:15;12.13;;;8.23;;
28760;SDS011;15917;50.014;8.352;2023-06-22T02:39:40;14.60;;;7.97;;
28760;SDS011;15917;50.014;8.352;2023-06-22T02:42:07;12.80;;;8.48;;
28760;SDS011;15917;50.014;8.352;2023-06-22T02:44:32;9.95;;;7.65;;
28760;SDS011;15917;50.014;8.352;2023-06-22T02:46:58;13.02;;;7.55;;
28760;SDS011;15917;50.014;8.352;2023-06-22T02:49:24;14.63;;;9.00;;
28760;SDS011;15917;50.014;8.352;2023-06-22T02:51:50;12.70;;;7.53;;
28760;SDS011;15917;50.014;8.352;2023-06-22T02:54:18;12.88;;;8.35;;
28760;SDS011;15917;50.014;8.352;2023-06-22T02:56:46;12.00;;;8.27;;
28760;SDS011;15917;50.014;8.352;2023-06-22T02:59:13;15.32;;;8.60;;
28760;SDS011;15917;50.014;8.352;2023-06-22T03:01:38;10.60;;;8.13;;
28760;SDS011;15917;50.014;8.352;2023-06-22T03:04:27;11.25;;;8.23;;
28760;SDS011;15917;50.014;8.352;2023-06-22T03:06:53;12.52;;;8.55;;
28760;SDS011;15917;50.014;8.352;2023-06-22T03:09:18;15.18;;;8.50;;
28760;SDS011;15917;50.014;8.352;2023-06-22T03:11:44;10.80;;;8.35;;
28760;SDS011;15917;50.014;8.352;2023-06-22T03:14:09;22.42;;;8.50;;
28760;SDS011;15917;50.014;8.352;2023-06-22T03:16:35;13.27;;;8.32;;
28760;SDS011;15917;50.014;8.352;2023-06-22T03:19:02;12.20;;;7.90;;
28760;SDS011;15917;50.014;8.352;2023-06-22T03:21:28;17.45;;;8.00;;
28760;SDS011;15917;50.014;8.352;2023-06-22T03:23:54;13.48;;;8.05;;
28760;SDS011;15917;50.014;8.352;2023-06-22T03:26:20;12.15;;;8.10;;
28760;SDS011;15917;50.014;8.352;2023-06-22T03:28:46;12.63;;;9.02;;
28760;SDS011;15917;50.014;8.352;2023-06-22T03:31:12;13.23;;;8.65;;
28760;SDS011;15917;50.014;8.352;2023-06-22T03:33:39;13.70;;;8.98;;
28760;SDS011;15917;50.014;8.352;2023-06-22T03:36:05;11.45;;;8.85;;
28760;SDS011;15917;50.014;8.352;2023-06-22T03:38:30;15.13;;;8.73;;
28760;SDS011;15917;50.014;8.352;2023-06-22T03:40:58;11.80;;;7.85;;
28760;SDS011;15917;50.014;8.352;2023-06-22T03:43:24;10.95;;;7.90;;
28760;SDS011;15917;50.014;8.352;2023-06-22T03:45:50;11.60;;;8.25;;
28760;SDS011;15917;50.014;8.352;2023-06-22T03:48:16;15.02;;;8.18;;
28760;SDS011;15917;50.014;8.352;2023-06-22T03:50:41;10.93;;;7.38;;
28760;SDS011;15917;50.014;8.352;2023-06-22T03:53:09;14.35;;;7.90;;
28760;SDS011;15917;50.014;8.352;2023-06-22T03:55:35;11.90;;;8.23;;
28760;SDS011;15917;50.014;8.352;2023-06-22T03:58:01;11.95;;;8.30;;
28760;SDS011;15917;50.014;8.352;2023-06-22T04:00:31;17.52;;;8.95;;
28760;SDS011;15917;50.014;8.352;2023-06-22T04:02:57;13.35;;;8.77;;
28760;SDS011;15917;50.014;8.352;2023-06-22T04:05:22;14.48;;;9.18;;
28760;SDS011;15917;50.014;8.352;2023-06-22T04:07:49;12.88;;;8.32;;
28760;SDS011;15917;50.014;8.352;2023-06-22T04:10:15;11.85;;;8.05;;
28760;SDS011;15917;50.014;8.352;2023-06-22T04:12:40;12.82;;;8.90;;
28760;SDS011;15917;50.014;8.352;2023-06-22T04:15:06;14.57;;;9.02;;
28760;SDS011;15917;50.014;8.352;2023-06-22T04:17:32;15.05;;;8.27;;
28760;SDS011;15917;50.014;8.352;2023-06-22T04:19:57;10.77;;;7.65;;
28760;SDS011;15917;50.014;8.352;2023-06-22T04:22:23;18.05;;;7.80;;
28760;SDS011;15917;50.014;8.352;2023-06-22T04:24:48;13.95;;;8.90;;
28760;SDS011;15917;50.014;8.352;2023-06-22T04:27:17;15.18;;;8.82;;
28760;SDS011;15917;50.014;8.352;2023-06-22T04:29:44;18.60;;;8.63;;
28760;SDS011;15917;50.014;8.352;2023-06-22T04:32:14;15.15;;;8.60;;
28760;SDS011;15917;50.014;8.352;2023-06-22T04:34:40;13.40;;;8.73;;
28760;SDS011;15917;50.014;8.352;2023-06-22T04:37:06;14.30;;;8.27;;
28760;SDS011;15917;50.014;8.352;2023-06-22T04:39:31;12.98;;;8.32;;
28760;SDS011;15917;50.014;8.352;2023-06-22T04:41:57;14.68;;;8.38;;
28760;SDS011;15917;50.014;8.352;2023-06-22T04:44:25;14.55;;;8.30;;
28760;SDS011;15917;50.014;8.352;2023-06-22T04:46:58;12.32;;;8.23;;
28760;SDS011;15917;50.014;8.352;2023-06-22T04:49:33;12.55;;;8.57;;
28760;SDS011;15917;50.014;8.352;2023-06-22T04:52:06;15.15;;;8.05;;
28760;SDS011;15917;50.014;8.352;2023-06-22T04:54:32;11.88;;;7.45;;
28760;SDS011;15917;50.014;8.352;2023-06-22T04:57:03;12.30;;;8.32;;
28760;SDS011;15917;50.014;8.352;2023-06-22T04:59:34;15.25;;;8.20;;
28760;SDS011;15917;50.014;8.352;2023-06-22T05:02:00;13.02;;;8.48;;
28760;SDS011;15917;50.014;8.352;2023-06-22T05:04:27;15.43;;;8.85;;
28760;SDS011;15917;50.014;8.352;2023-06-22T05:06:56;16.33;;;9.35;;
28760;SDS011;15917;50.014;8.352;2023-06-22T05:09:22;12.43;;;8.55;;
28760;SDS011;15917;50.014;8.352;2023-06-22T05:11:49;16.05;;;9.57;;
28760;SDS011;15917;50.014;8.352;2023-06-22T05:14:15;17.50;;;10.02;;
28760;SDS011;15917;50.014;8.352;2023-06-22T05:16:41;16.15;;;10.23;;
28760;SDS011;15917;50.014;8.352;2023-06-22T05:19:07;18.63;;;10.32;;
28760;SDS011;15917;50.014;8.352;2023-06-22T05:21:33;19.52;;;11.75;;
28760;SDS011;15917;50.014;8.352;2023-06-22T05:23:59;23.10;;;10.57;;
28760;SDS011;15917;50.014;8.352;2023-06-22T05:26:27;25.42;;;9.73;;
28760;SDS011;15917;50.014;8.352;2023-06-22T05:28:58;30.25;;;10.43;;
28760;SDS011;15917;50.014;8.352;2023-06-22T05:31:24;16.13;;;9.80;;
28760;SDS011;15917;50.014;8.352;2023-06-22T05:33:51;15.80;;;10.02;;
28760;SDS011;15917;50.014;8.352;2023-06-22T05:36:17;16.83;;;10.25;;
28760;SDS011;15917;50.014;8.352;2023-06-22T05:38:45;11.57;;;8.75;;
28760;SDS011;15917;50.014;8.352;2023-06-22T05:41:11;15.52;;;9.43;;
28760;SDS011;15917;50.014;8.352;2023-06-22T05:43:37;20.88;;;9.77;;
28760;SDS011;15917;50.014;8.352;2023-06-22T05:46:03;18.73;;;9.50;;
28760;SDS011;15917;50.014;8.352;2023-06-22T05:48:29;17.50;;;9.85;;
28760;SDS011;15917;50.014;8.352;2023-06-22T05:50:55;15.93;;;9.32;;
28760;SDS011;15917;50.014;8.352;2023-06-22T05:53:21;14.00;;;9.65;;
28760;SDS011;15917;50.014;8.352;2023-06-22T05:55:47;14.00;;;9.50;;
28760;SDS011;15917;50.014;8.352;2023-06-22T05:58:13;18.40;;;9.65;;
28760;SDS011;15917;50.014;8.352;2023-06-22T06:00:39;16.42;;;8.90;;
28760;SDS011;15917;50.014;8.352;2023-06-22T06:03:06;16.35;;;9.85;;
28760;SDS011;15917;50.014;8.352;2023-06-22T06:05:33;21.38;;;9.70;;
28760;SDS011;15917;50.014;8.352;2023-06-22T06:08:02;20.15;;;8.93;;
28760;SDS011;15917;50.014;8.352;2023-06-22T06:10:30;13.85;;;8.30;;
28760;SDS011;15917;50.014;8.352;2023-06-22T06:12:57;18.52;;;10.07;;
28760;SDS011;15917;50.014;8.352;2023-06-22T06:15:23;19.60;;;9.23;;
28760;SDS011;15917;50.014;8.352;2023-06-22T06:17:49;15.85;;;10.23;;
28760;SDS011;15917;50.014;8.352;2023-06-22T06:20:23;17.35;;;8.88;;
28760;SDS011;15917;50.014;8.352;2023-06-22T06:22:49;12.23;;;6.70;;
28760;SDS011;15917;50.014;8.352;2023-06-22T06:25:15;14.60;;;8.43;;
28760;SDS011;15917;50.014;8.352;2023-06-22T06:27:42;16.23;;;7.90;;
28760;SDS011;15917;50.014;8.352;2023-06-22T06:30:08;20.43;;;8.50;;
28760;SDS011;15917;50.014;8.352;2023-06-22T06:32:35;11.85;;;8.52;;
28760;SDS011;15917;50.014;8.352;2023-06-22T06:35:01;16.70;;;9.68;;
28760;SDS011;15917;50.014;8.352;2023-06-22T06:37:26;11.77;;;7.30;;
28760;SDS011;15917;50.014;8.352;2023-06-22T06:39:53;15.73;;;8.80;;
28760;SDS011;15917;50.014;8.352;2023-06-22T06:42:18;16.90;;;9.73;;
28760;SDS011;15917;50.014;8.352;2023-06-22T06:44:44;17.73;;;9.20;;
28760;SDS011;15917;50.014;8.352;2023-06-22T06:47:10;17.25;;;9.23;;
28760;SDS011;15917;50.014;8.352;2023-06-22T06:49:36;14.45;;;8.13;;
28760;SDS011;15917;50.014;8.352;2023-06-22T06:52:01;13.40;;;9.02;;
28760;SDS011;15917;50.014;8.352;2023-06-22T06:54:27;12.65;;;8.10;;
28760;SDS011;15917;50.014;8.352;2023-06-22T06:56:53;15.30;;;8.73;;
28760;SDS011;15917;50.014;8.352;2023-06-22T06:59:18;14.25;;;8.25;;
28760;SDS011;15917;50.014;8.352;2023-06-22T07:01:44;13.77;;;8.60;;
28760;SDS011;15917;50.014;8.352;2023-06-22T07:04:09;20.00;;;9.20;;
28760;SDS011;15917;50.014;8.352;2023-06-22T07:06:35;17.92;;;9.38;;
28760;SDS011;15917;50.014;8.352;2023-06-22T07:09:01;15.52;;;9.95;;
28760;SDS011;15917;50.014;8.352;2023-06-22T07:11:28;15.88;;;8.63;;
28760;SDS011;15917;50.014;8.352;2023-06-22T07:13:53;23.80;;;9.52;;
28760;SDS011;15917;50.014;8.352;2023-06-22T07:16:19;16.63;;;9.23;;
28760;SDS011;15917;50.014;8.352;2023-06-22T07:18:44;14.52;;;8.00;;
28760;SDS011;15917;50.014;8.352;2023-06-22T07:21:10;16.42;;;8.90;;
28760;SDS011;15917;50.014;8.352;2023-06-22T07:23:36;15.40;;;9.02;;
28760;SDS011;15917;50.014;8.352;2023-06-22T07:26:01;16.70;;;9.18;;
28760;SDS011;15917;50.014;8.352;2023-06-22T07:28:27;15.18;;;9.40;;
28760;SDS011;15917;50.014;8.352;2023-06-22T07:30:53;13.25;;;9.30;;
28760;SDS011;15917;50.014;8.352;2023-06-22T07:33:19;15.18;;;8.38;;
28760;SDS011;15917;50.014;8.352;2023-06-22T07:35:44;16.10;;;8.50;;
28760;SDS011;15917;50.014;8.352;2023-06-22T07:38:12;12.68;;;7.85;;
28760;SDS011;15917;50.014;8.352;2023-06-22T07:40:37;10.50;;;7.80;;
28760;SDS011;15917;50.014;8.352;2023-06-22T07:43:03;14.48;;;9.23;;
28760;SDS011;15917;50.014;8.352;2023-06-22T07:45:29;15.63;;;8.80;;
28760;SDS011;15917;50.014;8.352;2023-06-22T07:47:55;14.15;;;8.48;;
28760;SDS011;15917;50.014;8.352;2023-06-22T07:50:20;12.43;;;8.57;;
28760;SDS011;15917;50.014;8.352;2023-06-22T07:52:46;19.45;;;9.13;;
28760;SDS011;15917;50.014;8.352;2023-06-22T07:55:13;15.33;;;8.67;;
28760;SDS011;15917;50.014;8.352;2023-06-22T07:57:38;12.68;;;9.00;;
28760;SDS011;15917;50.014;8.352;2023-06-22T08:00:04;13.32;;;8.60;;
28760;SDS011;15917;50.014;8.352;2023-06-22T08:02:42;16.23;;;9.20;;
28760;SDS011;15917;50.014;8.352;2023-06-22T08:05:09;10.52;;;8.00;;
28760;SDS011;15917;50.014;8.352;2023-06-22T08:07:36;14.95;;;8.13;;
28760;SDS011;15917;50.014;8.352;2023-06-22T08:10:04;20.02;;;8.15;;
28760;SDS011;15917;50.014;8.352;2023-06-22T08:12:30;14.20;;;8.38;;
28760;SDS011;15917;50.014;8.352;2023-06-22T08:14:56;13.48;;;8.50;;
28760;SDS011;15917;50.014;8.352;2023-06-22T08:17:23;16.98;;;7.90;;
28760;SDS011;15917;50.014;8.352;2023-06-22T08:19:49;13.45;;;9.18;;
28760;SDS011;15917;50.014;8.352;2023-06-22T08:22:22;15.65;;;8.90;;
28760;SDS011;15917;50.014;8.352;2023-06-22T08:24:51;20.50;;;9.38;;
28760;SDS011;15917;50.014;8.352;2023-06-22T08:27:17;13.95;;;8.50;;
28760;SDS011;15917;50.014;8.352;2023-06-22T08:29:46;13.75;;;9.00;;
28760;SDS011;15917;50.014;8.352;2023-06-22T08:32:12;13.23;;;8.27;;
28760;SDS011;15917;50.014;8.352;2023-06-22T08:34:37;10.13;;;8.35;;
28760;SDS011;15917;50.014;8.352;2023-06-22T08:37:07;12.90;;;8.93;;
28760;SDS011;15917;50.014;8.352;2023-06-22T08:39:33;13.73;;;8.38;;
28760;SDS011;15917;50.014;8.352;2023-06-22T08:41:59;14.02;;;8.65;;
28760;SDS011;15917;50.014;8.352;2023-06-22T08:44:24;18.98;;;9.55;;
28760;SDS011;15917;50.014;8.352;2023-06-22T08:46:50;16.67;;;9.13;;
28760;SDS011;15917;50.014;8.352;2023-06-22T08:49:16;22.00;;;9.98;;
28760;SDS011;15917;50.014;8.352;2023-06-22T08:51:41;11.45;;;8.65;;
28760;SDS011;15917;50.014;8.352;2023-06-22T08:54:07;12.60;;;8.88;;
28760;SDS011;15917;50.014;8.352;2023-06-22T08:56:32;14.57;;;8.48;;
28760;SDS011;15917;50.014;8.352;2023-06-22T08:58:58;13.73;;;8.88;;
28760;SDS011;15917;50.014;8.352;2023-06-22T09:01:24;16.42;;;8.60;;
28760;SDS011;15917;50.014;8.352;2023-06-22T09:03:49;15.13;;;9.32;;
28760;SDS011;15917;50.014;8.352;2023-06-22T09:06:20;13.35;;;9.13;;
28760;SDS011;15917;50.014;8.352;2023-06-22T09:08:46;15.88;;;8.63;;
28760;SDS011;15917;50.014;8.352;2023-06-22T09:11:15;17.10;;;8.65;;
28760;SDS011;15917;50.014;8.352;2023-06-22T09:13:41;13.98;;;8.50;;
28760;SDS011;15917;50.014;8.352;2023-06-22T09:16:07;13.43;;;7.90;;
28760;SDS011;15917;50.014;8.352;2023-06-22T09:18:36;12.13;;;8.60;;
28760;SDS011;15917;50.014;8.352;2023-06-22T09:21:01;13.50;;;8.27;;
28760;SDS011;15917;50.014;8.352;2023-06-22T09:23:33;18.48;;;8.65;;
28760;SDS011;15917;50.014;8.352;2023-06-22T09:25:59;13.40;;;9.10;;
28760;SDS011;15917;50.014;8.352;2023-06-22T09:28:24;16.17;;;8.80;;
28760;SDS011;15917;50.014;8.352;2023-06-22T09:30:50;15.32;;;8.60;;
28760;SDS011;15917;50.014;8.352;2023-06-22T09:33:16;13.95;;;9.50;;
28760;SDS011;15917;50.014;8.352;2023-06-22T09:35:44;16.05;;;9.23;;
28760;SDS011;15917;50.014;8.352;2023-06-22T09:38:10;11.52;;;8.05;;
28760;SDS011;15917;50.014;8.352;2023-06-22T09:40:35;10.55;;;8.13;;
28760;SDS011;15917;50.014;8.352;2023-06-22T09:43:05;16.70;;;8.80;;
28760;SDS011;15917;50.014;8.352;2023-06-22T09:45:30;16.95;;;8.63;;
28760;SDS011;15917;50.014;8.352;2023-06-22T09:47:56;13.82;;;8.38;;
28760;SDS011;15917;50.014;8.352;2023-06-22T09:50:21;19.65;;;8.95;;
28760;SDS011;15917;50.014;8.352;2023-06-22T09:52:47;10.75;;;8.02;;
28760;SDS011;15917;50.014;8.352;2023-06-22T09:55:15;10.38;;;8.25;;
28760;SDS011;15917;50.014;8.352;2023-06-22T09:57:41;13.57;;;8.23;;
28760;SDS011;15917;50.014;8.352;2023-06-22T10:00:07;15.30;;;7.80;;
28760;SDS011;15917;50.014;8.352;2023-06-22T10:02:34;12.35;;;8.45;;
28760;SDS011;15917;50.014;8.352;2023-06-22T10:05:00;16.80;;;7.63;;
28760;SDS011;15917;50.014;8.352;2023-06-22T10:07:26;11.10;;;8.07;;
28760;SDS011;15917;50.014;8.352;2023-06-22T10:09:51;12.88;;;7.88;;
28760;SDS011;15917;50.014;8.352;2023-06-22T10:12:17;10.85;;;7.93;;
28760;SDS011;15917;50.014;8.352;2023-06-22T10:14:42;9.30;;;7.28;;
28760;SDS011;15917;50.014;8.352;2023-06-22T10:17:08;11.05;;;7.60;;
28760;SDS011;15917;50.014;8.352;2023-06-22T10:19:34;12.40;;;7.70;;
28760;SDS011;15917;50.014;8.352;2023-06-22T10:22:02;11.50;;;7.65;;
28760;SDS011;15917;50.014;8.352;2023-06-22T10:24:29;13.88;;;7.57;;
28760;SDS011;15917;50.014;8.352;2023-06-22T10:26:54;11.70;;;8.20;;
28760;SDS011;15917;50.014;8.352;2023-06-22T10:29:20;10.90;;;7.55;;
28760;SDS011;15917;50.014;8.352;2023-06-22T10:31:45;9.98;;;6.78;;
28760;SDS011;15917;50.014;8.352;2023-06-22T10:34:11;10.57;;;6.90;;
28760;SDS011;15917;50.014;8.352;2023-06-22T10:36:37;12.43;;;7.18;;
28760;SDS011;15917;50.014;8.352;2023-06-22T10:39:03;13.68;;;7.57;;
28760;SDS011;15917;50.014;8.352;2023-06-22T10:41:28;11.38;;;7.15;;
28760;SDS011;15917;50.014;8.352;2023-06-22T10:43:55;12.48;;;6.80;;
28760;SDS011;15917;50.014;8.352;2023-06-22T10:46:21;15.10;;;6.22;;
28760;SDS011;15917;50.014;8.352;2023-06-22T10:48:46;11.57;;;6.40;;
28760;SDS011;15917;50.014;8.352;2023-06-22T10:51:12;10.65;;;6.07;;
28760;SDS011;15917;50.014;8.352;2023-06-22T10:53:37;10.65;;;5.97;;
28760;SDS011;15917;50.014;8.352;2023-06-22T10:56:03;9.10;;;5.20;;
28760;SDS011;15917;50.014;8.352;2023-06-22T10:58:29;7.43;;;5.20;;
28760;SDS011;15917;50.014;8.352;2023-06-22T11:00:54;8.70;;;5.30;;
28760;SDS011;15917;50.014;8.352;2023-06-22T11:03:20;12.77;;;6.72;;
28760;SDS011;15917;50.014;8.352;2023-06-22T11:05:45;11.40;;;5.82;;
28760;SDS011;15917;50.014;8.352;2023-06-22T11:08:12;7.80;;;5.13;;
28760;SDS011;15917;50.014;8.352;2023-06-22T11:10:38;14.23;;;6.90;;
28760;SDS011;15917;50.014;8.352;2023-06-22T11:13:04;16.60;;;6.00;;
28760;SDS011;15917;50.014;8.352;2023-06-22T11:15:30;15.15;;;7.15;;
28760;SDS011;15917;50.014;8.352;2023-06-22T11:17:56;11.70;;;6.13;;
28760;SDS011;15917;50.014;8.352;2023-06-22T11:20:22;10.82;;;6.25;;
28760;SDS011;15917;50.014;8.352;2023-06-22T11:22:47;15.00;;;6.53;;
28760;SDS011;15917;50.014;8.352;2023-06-22T11:25:16;14.52;;;5.75;;
28760;SDS011;15917;50.014;8.352;2023-06-22T11:27:41;11.82;;;6.60;;
28760;SDS011;15917;50.014;8.352;2023-06-22T11:30:10;12.90;;;6.93;;
28760;SDS011;15917;50.014;8.352;2023-06-22T11:32:36;19.08;;;6.72;;
28760;SDS011;15917;50.014;8.352;2023-06-22T11:35:04;11.50;;;6.35;;
28760;SDS011;15917;50.014;8.352;2023-06-22T11:37:30;11.93;;;6.18;;
28760;SDS011;15917;50.014;8.352;2023-06-22T11:39:56;13.35;;;6.55;;
28760;SDS011;15917;50.014;8.352;2023-06-22T11:42:23;12.40;;;6.15;;
28760;SDS011;15917;50.014;8.352;2023-06-22T11:44:49;16.48;;;6.97;;
28760;SDS011;15917;50.014;8.352;2023-06-22T11:47:14;13.15;;;6.25;;
28760;SDS011;15917;50.014;8.352;2023-06-22T11:49:40;10.35;;;6.70;;
28760;SDS011;15917;50.014;8.352;2023-06-22T11:52:06;13.07;;;6.55;;
28760;SDS011;15917;50.014;8.352;2023-06-22T11:54:32;17.00;;;6.82;;
28760;SDS011;15917;50.014;8.352;2023-06-22T11:56:57;24.42;;;6.82;;
28760;SDS011;15917;50.014;8.352;2023-06-22T11:59:23;21.85;;;7.00;;
28760;SDS011;15917;50.014;8.352;2023-06-22T12:01:48;10.35;;;6.82;;
28760;SDS011;15917;50.014;8.352;2023-06-22T12:04:16;11.60;;;6.60;;
28760;SDS011;15917;50.014;8.352;2023-06-22T12:06:41;13.13;;;6.50;;
28760;SDS011;15917;50.014;8.352;2023-06-22T12:09:08;14.65;;;6.93;;
28760;SDS011;15917;50.014;8.352;2023-06-22T12:11:34;15.38;;;6.95;;
28760;SDS011;15917;50.014;8.352;2023-06-22T12:14:00;13.05;;;7.20;;
28760;SDS011;15917;50.014;8.352;2023-06-22T12:16:30;16.00;;;7.15;;
28760;SDS011;15917;50.014;8.352;2023-06-22T12:18:56;11.50;;;6.70;;
28760;SDS011;15917;50.014;8.352;2023-06-22T12:21:21;12.82;;;7.00;;
28760;SDS011;15917;50.014;8.352;2023-06-22T12:23:47;16.38;;;6.93;;
28760;SDS011;15917;50.014;8.352;2023-06-22T12:26:13;10.93;;;6.65;;
28760;SDS011;15917;50.014;8.352;2023-06-22T12:28:39;10.05;;;6.85;;
28760;SDS011;15917;50.014;8.352;2023-06-22T12:31:04;15.13;;;7.20;;
28760;SDS011;15917;50.014;8.352;2023-06-22T12:33:30;15.63;;;7.85;;
28760;SDS011;15917;50.014;8.352;2023-06-22T12:35:56;17.73;;;7.10;;
28760;SDS011;15917;50.014;8.352;2023-06-22T12:38:21;12.57;;;7.55;;
28760;SDS011;15917;50.014;8.352;2023-06-22T12:40:47;15.95;;;6.97;;
28760;SDS011;15917;50.014;8.352;2023-06-22T12:43:14;16.00;;;6.28;;
28760;SDS011;15917;50.014;8.352;2023-06-22T12:45:40;12.88;;;6.97;;
28760;SDS011;15917;50.014;8.352;2023-06-22T12:48:06;17.83;;;7.28;;
28760;SDS011;15917;50.014;8.352;2023-06-22T12:50:31;13.68;;;7.72;;
28760;SDS011;15917;50.014;8.352;2023-06-22T12:52:57;15.15;;;7.35;;
28760;SDS011;15917;50.014;8.352;2023-06-22T12:55:23;15.90;;;6.82;;
28760;SDS011;15917;50.014;8.352;2023-06-22T12:57:48;16.05;;;7.53;;
28760;SDS011;15917;50.014;8.352;2023-06-22T13:00:14;19.85;;;7.47;;
28760;SDS011;15917;50.014;8.352;2023-06-22T13:02:40;12.90;;;6.82;;
28760;SDS011;15917;50.014;8.352;2023-06-22T13:05:07;15.60;;;7.32;;
28760;SDS011;15917;50.014;8.352;2023-06-22T13:07:33;14.73;;;7.45;;
28760;SDS011;15917;50.014;8.352;2023-06-22T13:09:59;9.93;;;7.03;;
28760;SDS011;15917;50.014;8.352;2023-06-22T13:12:25;12.98;;;7.97;;
28760;SDS011;15917;50.014;8.352;2023-06-22T13:14:50;16.45;;;7.97;;
28760;SDS011;15917;50.014;8.352;2023-06-22T13:17:16;16.38;;;7.47;;
28760;SDS011;15917;50.014;8.352;2023-06-22T13:19:41;16.67;;;7.35;;
28760;SDS011;15917;50.014;8.352;2023-06-22T13:22:25;14.52;;;7.68;;
28760;SDS011;15917;50.014;8.352;2023-06-22T13:24:52;18.70;;;8.13;;
28760;SDS011;15917;50.014;8.352;2023-06-22T13:27:17;13.38;;;8.15;;
28760;SDS011;15917;50.014;8.352;2023-06-22T13:29:44;14.73;;;7.83;;
28760;SDS011;15917;50.014;8.352;2023-06-22T13:32:09;18.67;;;8.05;;
28760;SDS011;15917;50.014;8.352;2023-06-22T13:34:35;13.65;;;7.47;;
28760;SDS011;15917;50.014;8.352;2023-06-22T13:37:01;20.10;;;8.20;;
28760;SDS011;15917;50.014;8.352;2023-06-22T13:39:26;10.70;;;7.07;;
28760;SDS011;15917;50.014;8.352;2023-06-22T13:41:52;16.92;;;7.28;;
28760;SDS011;15917;50.014;8.352;2023-06-22T13:44:17;15.20;;;7.63;;
28760;SDS011;15917;50.014;8.352;2023-06-22T13:46:43;17.23;;;7.15;;
28760;SDS011;15917;50.014;8.352;2023-06-22T13:49:08;19.33;;;7.93;;
28760;SDS011;15917;50.014;8.352;2023-06-22T13:51:34;13.95;;;6.90;;
28760;SDS011;15917;50.014;8.352;2023-06-22T13:54:01;19.27;;;6.60;;
28760;SDS011;15917;50.014;8.352;2023-06-22T13:56:26;10.95;;;5.80;;
28760;SDS011;15917;50.014;8.352;2023-06-22T13:58:52;15.80;;;6.13;;
28760;SDS011;15917;50.014;8.352;2023-06-22T14:01:17;18.02;;;5.28;;
28760;SDS011;15917;50.014;8.352;2023-06-22T14:03:43;12.23;;;5.38;;
28760;SDS011;15917;50.014;8.352;2023-06-22T14:06:11;14.20;;;5.28;;
28760;SDS011;15917;50.014;8.352;2023-06-22T14:08:37;16.60;;;4.90;;
28760;SDS011;15917;50.014;8.352;2023-06-22T14:11:03;18.50;;;5.80;;
28760;SDS011;15917;50.014;8.352;2023-06-22T14:13:29;8.93;;;4.63;;
28760;SDS011;15917;50.014;8.352;2023-06-22T14:15:54;15.05;;;4.55;;
28760;SDS011;15917;50.014;8.352;2023-06-22T14:18:20;16.27;;;4.85;;
28760;SDS011;15917;50.014;8.352;2023-06-22T14:20:47;18.52;;;6.15;;
28760;SDS011;15917;50.014;8.352;2023-06-22T14:23:13;13.60;;;5.50;;
28760;SDS011;15917;50.014;8.352;2023-06-22T14:25:39;17.80;;;5.57;;
28760;SDS011;15917;50.014;8.352;2023-06-22T14:28:05;24.60;;;5.28;;
28760;SDS011;15917;50.014;8.352;2023-06-22T14:30:31;15.65;;;6.03;;
28760;SDS011;15917;50.014;8.352;2023-06-22T14:32:57;12.30;;;4.90;;
28760;SDS011;15917;50.014;8.352;2023-06-22T14:35:22;18.95;;;6.65;;
28760;SDS011;15917;50.014;8.352;2023-06-22T14:37:49;28.57;;;6.70;;
28760;SDS011;15917;50.014;8.352;2023-06-22T14:40:15;17.35;;;4.85;;
28760;SDS011;15917;50.014;8.352;2023-06-22T14:42:41;26.40;;;5.47;;